DLY469 LIML-ETAR
Flight info
| Callsign | DLY469 |
|---|---|
| Flight time | N/A |
| Altitude | 24000 |
| Route | ABESI N851 ROLSA Z162 ZUE T163 KOVAN T893 VABEN |
| Aircraft | CL60/M-SBDE1E2E3FGHIJ1J4J5J7M3RWXYZ/LB1V1D1 |
Departure
| Time | N/A |
|---|---|
| Airport | Milano Linate Airport (LIML) |
Arrival
| Time | 2026-05-05 18:47 |
|---|---|
| Airport | Ramstein Air Base (ETAR) |
| Time | Latitude | Longitude | Altitude | Speed | Heading |
|---|---|---|---|---|---|
| 2026-05-05 18:01 | 45.90546 | 9.13557 | 23138 ft | 291 kts | 346° |
| 2026-05-05 18:01 | 45.92562 | 9.13176 | 23873 ft | 293 kts | 346° |
| 2026-05-05 18:01 | 45.94591 | 9.12793 | 24583 ft | 295 kts | 345° |
| 2026-05-05 18:02 | 45.96629 | 9.12406 | 25288 ft | 296 kts | 345° |
| 2026-05-05 18:02 | 45.98667 | 9.12019 | 25976 ft | 297 kts | 344° |
| 2026-05-05 18:02 | 46.00709 | 9.11631 | 26640 ft | 297 kts | 343° |
| 2026-05-05 18:02 | 46.02753 | 9.11242 | 27284 ft | 298 kts | 343° |
| 2026-05-05 18:03 | 46.04816 | 9.10845 | 27797 ft | 303 kts | 342° |
| 2026-05-05 18:03 | 46.06922 | 9.10438 | 28265 ft | 309 kts | 342° |
| 2026-05-05 18:03 | 46.09064 | 9.10025 | 28766 ft | 314 kts | 342° |
| 2026-05-05 18:03 | 46.11225 | 9.09610 | 29261 ft | 318 kts | 342° |
| 2026-05-05 18:04 | 46.13462 | 9.09175 | 29612 ft | 326 kts | 342° |
| 2026-05-05 18:04 | 46.15732 | 9.08735 | 30014 ft | 333 kts | 342° |
| 2026-05-05 18:04 | 46.18063 | 9.08285 | 30444 ft | 338 kts | 342° |
| 2026-05-05 18:04 | 46.20391 | 9.07836 | 30877 ft | 342 kts | 342° |
| 2026-05-05 18:05 | 46.22775 | 9.07377 | 31321 ft | 345 kts | 342° |
| 2026-05-05 18:05 | 46.25153 | 9.06919 | 31769 ft | 347 kts | 342° |
| 2026-05-05 18:05 | 46.27536 | 9.06460 | 32211 ft | 349 kts | 342° |
| 2026-05-05 18:05 | 46.29963 | 9.05993 | 32669 ft | 350 kts | 343° |
| 2026-05-05 18:06 | 46.32378 | 9.05527 | 33106 ft | 351 kts | 342° |
| 2026-05-05 18:06 | 46.33979 | 9.05217 | 33389 ft | 351 kts | 342° |
| 2026-05-05 18:06 | 46.37226 | 9.04589 | 33953 ft | 352 kts | 343° |
| 2026-05-05 18:06 | 46.39654 | 9.04119 | 34340 ft | 353 kts | 343° |
| 2026-05-05 18:07 | 46.42058 | 9.03653 | 34686 ft | 353 kts | 343° |
| 2026-05-05 18:07 | 46.44510 | 9.03177 | 35041 ft | 352 kts | 344° |
| 2026-05-05 18:07 | 46.46917 | 9.02710 | 35377 ft | 351 kts | 343° |
| 2026-05-05 18:07 | 46.49337 | 9.02239 | 35691 ft | 350 kts | 344° |
| 2026-05-05 18:08 | 46.51759 | 9.01767 | 35913 ft | 352 kts | 344° |
| 2026-05-05 18:08 | 46.56564 | 9.00831 | 35925 ft | 348 kts | 345° |
| 2026-05-05 18:09 | 46.61383 | 8.99888 | 35939 ft | 347 kts | 345° |
| 2026-05-05 18:09 | 46.66133 | 8.98956 | 35942 ft | 347 kts | 345° |
| 2026-05-05 18:10 | 46.70942 | 8.98009 | 35948 ft | 352 kts | 345° |
| 2026-05-05 18:10 | 46.73412 | 8.97515 | 35952 ft | 363 kts | 345° |
| 2026-05-05 18:10 | 46.75936 | 8.97012 | 35956 ft | 374 kts | 346° |
| 2026-05-05 18:10 | 46.78543 | 8.96493 | 35943 ft | 385 kts | 346° |
| 2026-05-05 18:11 | 46.81251 | 8.95955 | 35945 ft | 396 kts | 346° |
| 2026-05-05 18:11 | 46.86833 | 8.94847 | 35927 ft | 416 kts | 347° |
| 2026-05-05 18:11 | 46.89775 | 8.94305 | 35903 ft | 428 kts | 349° |
| 2026-05-05 18:12 | 46.92741 | 8.93893 | 35899 ft | 437 kts | 349° |
| 2026-05-05 18:12 | 46.98940 | 8.93048 | 35905 ft | 453 kts | 350° |
| 2026-05-05 18:13 | 47.05312 | 8.92175 | 35911 ft | 468 kts | 350° |
| 2026-05-05 18:13 | 47.11883 | 8.91273 | 35927 ft | 480 kts | 350° |
| 2026-05-05 18:14 | 47.18599 | 8.90349 | 35916 ft | 490 kts | 351° |
| 2026-05-05 18:14 | 47.25458 | 8.89403 | 35905 ft | 498 kts | 351° |
| 2026-05-05 18:15 | 47.32361 | 8.88167 | 35886 ft | 501 kts | 347° |
| 2026-05-05 18:15 | 47.39229 | 8.86538 | 35882 ft | 503 kts | 347° |
| 2026-05-05 18:16 | 47.46179 | 8.84892 | 35880 ft | 503 kts | 347° |
| 2026-05-05 18:16 | 47.53059 | 8.83279 | 35883 ft | 503 kts | 349° |
| 2026-05-05 18:17 | 47.60111 | 8.82977 | 35882 ft | 509 kts | 2° |
| 2026-05-05 18:17 | 47.67028 | 8.84945 | 35877 ft | 511 kts | 14° |
| 2026-05-05 18:18 | 47.73873 | 8.87763 | 35887 ft | 511 kts | 14° |
| 2026-05-05 18:18 | 47.80805 | 8.90004 | 35876 ft | 508 kts | 4° |
| 2026-05-05 18:19 | 47.87831 | 8.91048 | 35876 ft | 507 kts | 4° |
| 2026-05-05 18:19 | 47.94902 | 8.92104 | 35865 ft | 507 kts | 4° |
| 2026-05-05 18:20 | 48.01884 | 8.93150 | 35863 ft | 507 kts | 4° |
| 2026-05-05 18:20 | 48.08905 | 8.94204 | 35516 ft | 508 kts | 4° |
| 2026-05-05 18:20 | 48.12424 | 8.94734 | 35019 ft | 506 kts | 4° |
| 2026-05-05 18:21 | 48.15919 | 8.95261 | 34512 ft | 504 kts | 4° |
| 2026-05-05 18:21 | 48.19408 | 8.95788 | 34007 ft | 504 kts | 4° |
| 2026-05-05 18:21 | 48.22854 | 8.96310 | 33486 ft | 505 kts | 5° |
| 2026-05-05 18:21 | 48.26373 | 8.96842 | 32937 ft | 503 kts | 5° |
| 2026-05-05 18:22 | 48.29828 | 8.97367 | 32384 ft | 498 kts | 5° |
| 2026-05-05 18:22 | 48.33242 | 8.97886 | 31847 ft | 492 kts | 6° |
| 2026-05-05 18:22 | 48.36649 | 8.98404 | 31290 ft | 487 kts | 6° |
| 2026-05-05 18:22 | 48.39992 | 8.98912 | 30731 ft | 481 kts | 6° |
| 2026-05-05 18:23 | 48.43313 | 8.99418 | 30160 ft | 474 kts | 6° |
| 2026-05-05 18:23 | 48.46585 | 8.99917 | 29596 ft | 469 kts | 7° |
| 2026-05-05 18:23 | 48.49773 | 9.00403 | 29040 ft | 464 kts | 6° |
| 2026-05-05 18:23 | 48.52980 | 9.00892 | 28510 ft | 460 kts | 7° |
| 2026-05-05 18:24 | 48.56173 | 9.01380 | 27948 ft | 456 kts | 6° |
| 2026-05-05 18:24 | 48.59300 | 9.01859 | 27405 ft | 451 kts | 6° |
| 2026-05-05 18:24 | 48.62422 | 9.02350 | 26846 ft | 447 kts | 7° |
| 2026-05-05 18:24 | 48.65482 | 9.03009 | 26297 ft | 443 kts | 10° |
| 2026-05-05 18:25 | 48.68523 | 9.03740 | 25736 ft | 438 kts | 9° |
| 2026-05-05 18:25 | 48.70518 | 9.04216 | 25368 ft | 435 kts | 10° |
| 2026-05-05 18:25 | 48.74476 | 9.05164 | 24629 ft | 431 kts | 9° |
| 2026-05-05 18:25 | 48.77455 | 9.05877 | 24065 ft | 427 kts | 9° |
| 2026-05-05 18:26 | 48.80368 | 9.06187 | 23525 ft | 423 kts | 358° |
| 2026-05-05 18:26 | 48.83261 | 9.05456 | 22960 ft | 417 kts | 343° |
| 2026-05-05 18:26 | 48.85874 | 9.03741 | 22414 ft | 411 kts | 328° |
| 2026-05-05 18:26 | 48.88141 | 9.01133 | 21858 ft | 406 kts | 314° |
| 2026-05-05 18:27 | 48.89904 | 8.97861 | 21316 ft | 400 kts | 300° |
| 2026-05-05 18:27 | 48.91132 | 8.94036 | 20765 ft | 412 kts | 287° |
| 2026-05-05 18:27 | 48.92010 | 8.89790 | 20211 ft | 432 kts | 284° |
| 2026-05-05 18:27 | 48.92889 | 8.85370 | 19652 ft | 439 kts | 284° |
| 2026-05-05 18:28 | 48.94644 | 8.76608 | 18549 ft | 429 kts | 285° |
| 2026-05-05 18:28 | 48.95516 | 8.72319 | 18002 ft | 425 kts | 285° |
| 2026-05-05 18:28 | 48.96387 | 8.68033 | 17450 ft | 421 kts | 285° |
| 2026-05-05 18:29 | 48.97240 | 8.63820 | 16900 ft | 416 kts | 285° |
| 2026-05-05 18:29 | 48.98082 | 8.59648 | 16351 ft | 411 kts | 285° |
| 2026-05-05 18:29 | 48.98882 | 8.55675 | 15820 ft | 407 kts | 285° |
| 2026-05-05 18:29 | 48.99709 | 8.51564 | 15264 ft | 403 kts | 285° |
| 2026-05-05 18:30 | 49.00525 | 8.47516 | 14902 ft | 397 kts | 285° |
| 2026-05-05 18:30 | 49.01338 | 8.43496 | 14815 ft | 397 kts | 285° |
| 2026-05-05 18:30 | 49.02150 | 8.39481 | 14825 ft | 397 kts | 285° |
| 2026-05-05 18:30 | 49.02959 | 8.35461 | 14820 ft | 398 kts | 285° |
| 2026-05-05 18:31 | 49.03769 | 8.31403 | 14818 ft | 398 kts | 284° |
| 2026-05-05 18:31 | 49.04840 | 8.27545 | 14831 ft | 402 kts | 299° |
| 2026-05-05 18:31 | 49.06730 | 8.24362 | 14827 ft | 408 kts | 319° |
| 2026-05-05 18:31 | 49.09255 | 8.22328 | 14831 ft | 416 kts | 339° |
| 2026-05-05 18:32 | 49.12125 | 8.21690 | 14816 ft | 421 kts | 359° |
| 2026-05-05 18:32 | 49.15052 | 8.21959 | 14806 ft | 422 kts | 358° |
| 2026-05-05 18:32 | 49.17889 | 8.21207 | 14825 ft | 415 kts | 336° |
| 2026-05-05 18:32 | 49.20293 | 8.18896 | 14817 ft | 399 kts | 313° |
| 2026-05-05 18:33 | 49.21778 | 8.15625 | 14826 ft | 365 kts | 292° |
| 2026-05-05 18:33 | 49.22839 | 8.12197 | 14806 ft | 344 kts | 297° |
| 2026-05-05 18:33 | 49.24251 | 8.09393 | 14816 ft | 327 kts | 310° |
| 2026-05-05 18:33 | 49.25813 | 8.06948 | 14817 ft | 311 kts | 311° |
| 2026-05-05 18:34 | 49.27323 | 8.04588 | 14810 ft | 311 kts | 311° |
| 2026-05-05 18:34 | 49.28828 | 8.02225 | 14827 ft | 312 kts | 311° |
| 2026-05-05 18:34 | 49.30344 | 7.99846 | 14682 ft | 316 kts | 311° |
| 2026-05-05 18:34 | 49.31881 | 7.97433 | 14077 ft | 317 kts | 311° |
| 2026-05-05 18:35 | 49.33409 | 7.95045 | 13428 ft | 313 kts | 313° |
| 2026-05-05 18:35 | 49.35235 | 7.93200 | 12797 ft | 315 kts | 338° |
| 2026-05-05 18:35 | 49.37395 | 7.92760 | 12184 ft | 317 kts | 0° |
| 2026-05-05 18:35 | 49.39570 | 7.93039 | 11539 ft | 315 kts | 3° |
| 2026-05-05 18:36 | 49.41721 | 7.93377 | 10920 ft | 312 kts | 4° |
| 2026-05-05 18:36 | 49.43873 | 7.93724 | 10281 ft | 310 kts | 4° |
| 2026-05-05 18:36 | 49.45993 | 7.94072 | 9657 ft | 307 kts | 4° |
| 2026-05-05 18:36 | 49.48082 | 7.94412 | 9049 ft | 303 kts | 4° |
| 2026-05-05 18:37 | 49.50163 | 7.94751 | 8424 ft | 301 kts | 4° |
| 2026-05-05 18:37 | 49.52255 | 7.95087 | 7790 ft | 298 kts | 4° |
| 2026-05-05 18:37 | 49.54298 | 7.95407 | 7156 ft | 295 kts | 4° |
| 2026-05-05 18:37 | 49.56316 | 7.95739 | 6659 ft | 287 kts | 7° |
| 2026-05-05 18:38 | 49.58103 | 7.96833 | 6546 ft | 281 kts | 37° |
| 2026-05-05 18:38 | 49.59333 | 7.99190 | 6439 ft | 288 kts | 67° |
| 2026-05-05 18:38 | 49.59677 | 8.02208 | 6196 ft | 287 kts | 96° |
| 2026-05-05 18:38 | 49.59040 | 8.05049 | 5811 ft | 279 kts | 127° |
| 2026-05-05 18:39 | 49.57618 | 8.06930 | 5443 ft | 268 kts | 158° |
| 2026-05-05 18:39 | 49.55824 | 8.07459 | 5075 ft | 261 kts | 181° |
| 2026-05-05 18:39 | 49.54021 | 8.07427 | 4701 ft | 261 kts | 183° |
| 2026-05-05 18:39 | 49.52183 | 8.07344 | 4326 ft | 262 kts | 184° |
| 2026-05-05 18:40 | 49.50451 | 8.06838 | 4047 ft | 255 kts | 208° |
| 2026-05-05 18:40 | 49.49112 | 8.05076 | 4000 ft | 254 kts | 231° |
| 2026-05-05 18:40 | 49.48021 | 8.02908 | 4004 ft | 255 kts | 233° |
| 2026-05-05 18:40 | 49.46984 | 8.00791 | 4010 ft | 242 kts | 233° |
| 2026-05-05 18:41 | 49.46010 | 7.98781 | 4020 ft | 225 kts | 234° |
| 2026-05-05 18:41 | 49.45331 | 7.96761 | 4016 ft | 208 kts | 256° |
| 2026-05-05 18:41 | 49.45121 | 7.94600 | 4013 ft | 202 kts | 263° |
| 2026-05-05 18:41 | 49.45000 | 7.92422 | 4007 ft | 204 kts | 264° |
| 2026-05-05 18:42 | 49.44904 | 7.90270 | 4009 ft | 199 kts | 265° |
| 2026-05-05 18:42 | 49.44821 | 7.88227 | 4040 ft | 184 kts | 265° |
| 2026-05-05 18:42 | 49.44743 | 7.86279 | 3990 ft | 183 kts | 265° |
| 2026-05-05 18:42 | 49.44664 | 7.84311 | 3766 ft | 182 kts | 265° |
| 2026-05-05 18:43 | 49.44591 | 7.82423 | 3472 ft | 177 kts | 265° |
| 2026-05-05 18:43 | 49.44517 | 7.80553 | 3194 ft | 172 kts | 265° |
| 2026-05-05 18:43 | 49.44447 | 7.78759 | 2968 ft | 167 kts | 265° |
| 2026-05-05 18:43 | 49.44377 | 7.77005 | 2725 ft | 158 kts | 265° |
| 2026-05-05 18:44 | 49.44314 | 7.75396 | 2530 ft | 140 kts | 265° |
| 2026-05-05 18:44 | 49.44259 | 7.73992 | 2380 ft | 127 kts | 265° |
| 2026-05-05 18:44 | 49.44202 | 7.72602 | 2212 ft | 130 kts | 265° |
| 2026-05-05 18:44 | 49.44146 | 7.71239 | 2026 ft | 128 kts | 265° |
| 2026-05-05 18:45 | 49.44085 | 7.69850 | 1849 ft | 130 kts | 265° |
| 2026-05-05 18:45 | 49.44034 | 7.68482 | 1643 ft | 129 kts | 266° |
| 2026-05-05 18:45 | 49.43978 | 7.67107 | 1460 ft | 129 kts | 265° |
| 2026-05-05 18:45 | 49.43917 | 7.65721 | 1311 ft | 129 kts | 266° |
| 2026-05-05 18:46 | 49.43861 | 7.64344 | 1169 ft | 130 kts | 266° |
| 2026-05-05 18:46 | 49.43800 | 7.62944 | 1005 ft | 133 kts | 267° |
| 2026-05-05 18:46 | 49.43747 | 7.61542 | 823 ft | 133 kts | 267° |
| 2026-05-05 18:46 | 49.43693 | 7.60220 | 783 ft | 112 kts | 266° |
| 2026-05-05 18:47 | 49.43659 | 7.59302 | 767 ft | 59 kts | 266° |
| 2026-05-05 18:47 | 49.43639 | 7.58812 | 767 ft | 43 kts | 267° |
| 2026-05-05 18:47 | 49.43626 | 7.58448 | 769 ft | 13 kts | 268° |
| 2026-05-05 18:47 | 49.43650 | 7.58376 | 770 ft | 4 kts | 336° |
| 2026-05-05 18:48 | 49.43676 | 7.58372 | 770 ft | 4 kts | 359° |
| 2026-05-05 18:48 | 49.43718 | 7.58369 | 770 ft | 7 kts | 357° |
| 2026-05-05 18:48 | 49.43742 | 7.58367 | 770 ft | 0 kts | 357° |
| 2026-05-05 18:49 | 49.43744 | 7.58366 | 770 ft | 1 kts | 357° |
| 2026-05-05 18:49 | 49.43800 | 7.58361 | 770 ft | 11 kts | 356° |
| 2026-05-05 18:49 | 49.43870 | 7.58316 | 771 ft | 11 kts | 314° |
| 2026-05-05 18:49 | 49.43952 | 7.58273 | 771 ft | 13 kts | 357° |
| 2026-05-05 18:50 | 49.44034 | 7.58293 | 773 ft | 7 kts | 70° |
| 2026-05-05 18:50 | 49.44038 | 7.58379 | 774 ft | 9 kts | 86° |
| 2026-05-05 18:50 | 49.44043 | 7.58500 | 775 ft | 12 kts | 88° |
| 2026-05-05 18:50 | 49.44047 | 7.58653 | 775 ft | 15 kts | 87° |
| 2026-05-05 18:51 | 49.44053 | 7.58836 | 776 ft | 18 kts | 87° |
| 2026-05-05 18:51 | 49.44060 | 7.59052 | 776 ft | 21 kts | 87° |
| 2026-05-05 18:51 | 49.44068 | 7.59292 | 776 ft | 23 kts | 87° |
| 2026-05-05 18:51 | 49.44075 | 7.59478 | 779 ft | 8 kts | 87° |
| 2026-05-05 18:52 | 49.44077 | 7.59541 | 780 ft | 7 kts | 88° |
| 2026-05-05 18:52 | 49.44102 | 7.59613 | 781 ft | 8 kts | 13° |
| 2026-05-05 18:52 | 49.44162 | 7.59611 | 783 ft | 8 kts | 351° |
| 2026-05-05 18:52 | 49.44220 | 7.59609 | 785 ft | 7 kts | 32° |
| 2026-05-05 18:53 | 49.44224 | 7.59688 | 786 ft | 8 kts | 97° |
| 2026-05-05 18:53 | 49.44216 | 7.59789 | 788 ft | 9 kts | 97° |
| 2026-05-05 18:53 | 49.44211 | 7.59898 | 790 ft | 10 kts | 73° |
| 2026-05-05 18:53 | 49.44264 | 7.59933 | 793 ft | 6 kts | 53° |
| 2026-05-05 18:54 | 49.44250 | 7.59977 | 793 ft | 0 kts | 180° |